KBAM/BAM METAR and TAF weather

Enter ICAO airport designator
Station Type Date Time Source
KBAM METAR 2021/05/07 01:15 UTC NOAA

KBAM 070115Z AUTO 25012KT 10SM CLR 30/M05 A2988 RMK AO1


Station Type Date Time Source
KBAM Decoded METAR 2021/05/07 01:15 UTC NOAA

Station name not available
May 06, 2021 - 09:15 PM EDT / 2021.05.07 0115 UTC
Wind: from the WSW (250 degrees) at 14 MPH (12 KT):0
Visibility: 10 mile(s):0
Sky conditions: clear
Temperature: 86 F (30 C)
Dew Point: 23 F (-5 C)
Relative Humidity: 9%
Pressure (altimeter): 29.88 in. Hg (1011 hPa)
ob: KBAM 070115Z AUTO 25012KT 10SM CLR 30/M05 A2988 RMK AO1
cycle: 1

Station Type Date Time Source
KBAM TAF 2021/05/06 18:21 UTC NOAA

TAF KBAM 061720Z 0618/0718 VRB04KT P6SM SCT120
FM062100 22014G24KT 6SM BLDU VCTS BKN120CB
FM070300 30006KT P6SM BKN120

Example: see airport list